Time;durP1;ratioP1;P1;durP2;ratioP2;P2;SDS_P1;SDS_P2;PMS_P1;PMS_P2;Temp;Humidity;BMP_temperature;BMP_pressure;BME280_temperature;BME280_humidity;BME280_pressure;Samples;Min_cycle;Max_cycle;Signal;HPM_P1;HPM_P2
2021/10/24 00:01:33;;;;;;;17.70;8.20;;;7.80;67.00;;;;;;5018019;28;20037;-67
2021/10/24 00:04:00;;;;;;;18.23;8.32;;;7.80;67.00;;;;;;5014832;28;20087;-67
2021/10/24 00:06:26;;;;;;;17.48;8.55;;;7.80;67.10;;;;;;5015475;28;20061;-67
2021/10/24 00:08:52;;;;;;;16.05;8.60;;;7.80;67.00;;;;;;5013052;28;20544;-67
2021/10/24 00:11:17;;;;;;;18.73;7.60;;;7.80;67.00;;;;;;5016356;28;20033;-66
2021/10/24 00:13:43;;;;;;;13.30;6.85;;;7.80;66.80;;;;;;5015365;28;20026;-67
2021/10/24 00:16:09;;;;;;;14.98;7.68;;;7.80;66.50;;;;;;5015254;28;20064;-67
2021/10/24 00:18:35;;;;;;;12.10;6.93;;;7.80;66.50;;;;;;5013932;28;20103;-67
2021/10/24 00:21:01;;;;;;;15.05;6.97;;;7.80;66.60;;;;;;5012251;28;20037;-67
2021/10/24 00:23:26;;;;;;;13.38;7.28;;;7.70;66.40;;;;;;5015457;28;20037;-67
2021/10/24 00:25:52;;;;;;;14.00;7.30;;;7.70;66.50;;;;;;5014696;28;20026;-67
2021/10/24 00:28:18;;;;;;;14.32;7.30;;;7.70;66.70;;;;;;5015152;28;20038;-67
2021/10/24 00:30:44;;;;;;;11.18;7.30;;;7.70;66.80;;;;;;5015594;28;20555;-67
2021/10/24 00:33:10;;;;;;;13.57;6.97;;;7.70;66.90;;;;;;5011864;28;20100;-67
2021/10/24 00:35:36;;;;;;;10.65;7.03;;;7.70;67.70;;;;;;5026461;28;20056;-67
2021/10/24 00:38:02;;;;;;;11.50;6.75;;;7.70;66.80;;;;;;5015729;28;20037;-67
2021/10/24 00:40:28;;;;;;;12.43;6.80;;;7.70;67.00;;;;;;5014508;28;20033;-67
2021/10/24 00:42:54;;;;;;;10.95;6.32;;;7.70;67.40;;;;;;5014828;28;20120;-67
2021/10/24 00:45:25;;;;;;;11.95;6.97;;;7.60;67.10;;;;;;5011753;28;20112;-67
2021/10/24 00:47:53;;;;;;;10.50;5.95;;;7.60;67.10;;;;;;5012415;28;20022;-67
2021/10/24 00:50:19;;;;;;;8.45;5.43;;;7.50;67.20;;;;;;5015212;28;20536;-67
2021/10/24 00:52:46;;;;;;;12.93;6.93;;;7.50;67.10;;;;;;5015193;28;20046;-67
2021/10/24 00:55:13;;;;;;;11.20;7.15;;;7.40;67.10;;;;;;5018863;28;20057;-67
2021/10/24 00:57:41;;;;;;;12.80;7.53;;;7.40;67.40;;;;;;5025509;28;20112;-67
2021/10/24 01:00:10;;;;;;;13.00;7.53;;;7.30;67.80;;;;;;5011710;28;20029;-67
2021/10/24 01:02:36;;;;;;;23.02;10.63;;;7.30;67.90;;;;;;5025979;28;20515;-67
2021/10/24 01:05:05;;;;;;;24.30;9.65;;;7.20;67.90;;;;;;5014871;28;20065;-67
2021/10/24 01:07:32;;;;;;;21.45;8.98;;;7.20;68.00;;;;;;5017649;28;20029;-67
2021/10/24 01:09:58;;;;;;;20.95;8.75;;;7.20;68.30;;;;;;5046702;28;20033;-67
2021/10/24 01:12:24;;;;;;;23.13;8.50;;;7.10;68.30;;;;;;5011936;28;20559;-67
2021/10/24 01:14:50;;;;;;;20.70;9.40;;;7.10;68.50;;;;;;5012550;28;20025;-67
2021/10/24 01:17:16;;;;;;;21.23;8.00;;;7.10;68.50;;;;;;5017267;28;20088;-67
2021/10/24 01:19:41;;;;;;;14.82;7.43;;;7.10;68.50;;;;;;5018603;28;20143;-67
2021/10/24 01:22:07;;;;;;;14.60;7.72;;;7.10;68.70;;;;;;5018061;28;20473;-67
2021/10/24 01:24:33;;;;;;;12.18;6.53;;;7.10;68.80;;;;;;5016208;28;20061;-67
2021/10/24 01:26:59;;;;;;;13.60;5.97;;;7.10;68.50;;;;;;5031354;28;20476;-67
2021/10/24 01:29:25;;;;;;;10.55;6.05;;;7.10;68.20;;;;;;5017710;28;20026;-67
2021/10/24 01:31:52;;;;;;;9.63;5.95;;;7.10;68.20;;;;;;5017856;28;20032;-67
2021/10/24 01:34:18;;;;;;;11.57;6.35;;;7.10;68.20;;;;;;5025640;28;20026;-67
2021/10/24 01:36:44;;;;;;;10.32;5.60;;;7.00;68.20;;;;;;5026290;28;20032;-67
2021/10/24 01:39:10;;;;;;;13.10;6.80;;;7.00;68.10;;;;;;5029406;28;20033;-67
2021/10/24 01:41:36;;;;;;;12.65;6.30;;;7.00;69.10;;;;;;5020629;28;20392;-67
2021/10/24 01:44:02;;;;;;;13.02;6.70;;;7.00;69.10;;;;;;5018128;28;20045;-67
2021/10/24 01:46:28;;;;;;;10.32;6.20;;;7.00;69.20;;;;;;5017489;28;20034;-67
2021/10/24 01:48:54;;;;;;;12.18;6.28;;;6.90;69.20;;;;;;5017542;28;20032;-67
2021/10/24 01:51:21;;;;;;;10.07;6.10;;;6.90;69.40;;;;;;5014191;28;20045;-67
2021/10/24 01:53:48;;;;;;;9.65;5.72;;;6.90;69.50;;;;;;5015553;28;20029;-67
2021/10/24 01:56:14;;;;;;;11.15;6.07;;;6.90;69.30;;;;;;5018122;28;20053;-67
2021/10/24 01:58:40;;;;;;;8.70;5.80;;;6.90;69.30;;;;;;5017405;28;20069;-67
2021/10/24 02:01:07;;;;;;;10.25;6.57;;;6.90;69.60;;;;;;5017302;28;20564;-67
2021/10/24 02:03:32;;;;;;;10.23;5.80;;;6.80;70.00;;;;;;5019568;28;20034;-67
2021/10/24 02:05:59;;;;;;;10.32;5.75;;;6.90;70.70;;;;;;5017764;28;20578;-67
2021/10/24 02:08:25;;;;;;;9.57;5.70;;;6.80;71.40;;;;;;5017151;28;20148;-67
2021/10/24 02:10:52;;;;;;;9.05;5.00;;;6.80;72.00;;;;;;5017153;28;20105;-67
2021/10/24 02:13:18;;;;;;;9.82;6.13;;;6.80;71.90;;;;;;5016929;28;20497;-67
2021/10/24 02:15:44;;;;;;;10.38;5.47;;;6.90;72.00;;;;;;5017129;28;20040;-67
2021/10/24 02:18:10;;;;;;;10.68;5.28;;;6.80;72.10;;;;;;5013180;28;20171;-67
2021/10/24 02:20:37;;;;;;;12.13;5.18;;;6.80;74.40;;;;;;5016994;28;20029;-67
2021/10/24 02:23:05;;;;;;;10.05;5.25;;;6.90;75.20;;;;;;5027025;28;20119;-67
2021/10/24 02:25:32;;;;;;;8.80;4.97;;;6.80;75.10;;;;;;5020799;28;20034;-67
2021/10/24 02:27:58;;;;;;;10.48;5.00;;;6.80;75.50;;;;;;5016618;28;20036;-67
2021/10/24 02:30:24;;;;;;;10.48;5.00;;;6.80;75.90;;;;;;5013967;28;20026;-67
2021/10/24 02:32:50;;;;;;;8.43;4.95;;;6.80;75.80;;;;;;5014920;28;20033;-67
2021/10/24 02:35:16;;;;;;;8.07;5.18;;;6.80;76.30;;;;;;5017407;28;20018;-67
2021/10/24 02:37:44;;;;;;;8.07;5.03;;;6.80;76.40;;;;;;5016617;28;20088;-67
2021/10/24 02:40:10;;;;;;;10.98;5.22;;;6.80;76.00;;;;;;5016715;28;20032;-67
2021/10/24 02:42:37;;;;;;;10.35;5.15;;;6.80;76.30;;;;;;5015181;28;20021;-67
2021/10/24 02:45:04;;;;;;;10.18;5.43;;;6.70;76.50;;;;;;5013477;28;20037;-67
2021/10/24 02:47:30;;;;;;;9.15;5.18;;;6.80;76.60;;;;;;5030434;28;20025;-67
2021/10/24 02:49:56;;;;;;;8.48;5.07;;;6.70;76.40;;;;;;5018219;28;20379;-67
2021/10/24 02:52:21;;;;;;;10.23;5.40;;;6.70;76.20;;;;;;5018013;28;20065;-67
2021/10/24 02:54:47;;;;;;;11.45;5.38;;;6.70;76.40;;;;;;5026567;28;20029;-67
2021/10/24 02:57:13;;;;;;;9.82;5.53;;;6.70;76.40;;;;;;5011950;28;20100;-67
2021/10/24 02:59:39;;;;;;;9.70;5.55;;;6.70;76.40;;;;;;5027658;28;20108;-67
2021/10/24 03:02:05;;;;;;;12.15;6.35;;;6.70;76.00;;;;;;5016538;28;20114;-67
2021/10/24 03:04:31;;;;;;;12.07;6.95;;;6.70;76.00;;;;;;5016399;28;20405;-67
2021/10/24 03:06:56;;;;;;;10.18;5.90;;;6.70;76.20;;;;;;5019180;28;20022;-67
2021/10/24 03:09:22;;;;;;;11.02;6.13;;;6.70;76.00;;;;;;5044832;28;20096;-67
2021/10/24 03:11:48;;;;;;;10.40;6.30;;;6.70;75.80;;;;;;5013964;28;20030;-67
2021/10/24 03:14:15;;;;;;;10.43;5.88;;;6.60;75.90;;;;;;5016736;28;20021;-67
2021/10/24 03:16:42;;;;;;;8.90;5.35;;;6.60;76.30;;;;;;5015884;28;20018;-67
2021/10/24 03:19:07;;;;;;;9.07;5.38;;;6.60;76.90;;;;;;5015692;28;20041;-67
2021/10/24 03:21:33;;;;;;;9.82;5.40;;;6.60;76.60;;;;;;5026006;28;20212;-66
2021/10/24 03:24:04;;;;;;;11.98;4.95;;;6.60;76.70;;;;;;5026952;28;20044;-66
2021/10/24 03:26:32;;;;;;;9.00;5.28;;;6.50;76.80;;;;;;5026410;28;20026;-66
2021/10/24 03:28:57;;;;;;;8.55;5.13;;;6.50;76.40;;;;;;5017065;28;20042;-66
2021/10/24 03:31:23;;;;;;;8.48;4.97;;;6.50;76.50;;;;;;5015584;28;20029;-66
2021/10/24 03:33:50;;;;;;;8.40;5.00;;;6.50;76.30;;;;;;5015977;28;20040;-66
2021/10/24 03:36:16;;;;;;;9.93;4.82;;;6.50;76.00;;;;;;5026949;28;20104;-66
2021/10/24 03:38:42;;;;;;;10.13;4.70;;;6.40;75.70;;;;;;5017414;28;20167;-66
2021/10/24 03:41:09;;;;;;;6.93;4.55;;;6.40;75.60;;;;;;5024369;28;20108;-66
2021/10/24 03:43:34;;;;;;;11.02;4.82;;;6.40;76.20;;;;;;5020402;28;20108;-66
2021/10/24 03:46:01;;;;;;;7.97;4.55;;;6.40;76.10;;;;;;5021199;28;20116;-66
2021/10/24 03:48:27;;;;;;;9.07;4.32;;;6.40;75.90;;;;;;5044588;28;20393;-66
2021/10/24 03:50:52;;;;;;;8.02;4.57;;;6.30;75.60;;;;;;5012975;28;20493;-67
2021/10/24 03:53:18;;;;;;;7.88;4.10;;;6.30;75.50;;;;;;5015870;28;20177;-66
2021/10/24 03:55:46;;;;;;;7.30;4.25;;;6.30;75.40;;;;;;5015091;28;20029;-66
2021/10/24 03:58:15;;;;;;;7.63;4.30;;;6.30;75.30;;;;;;5015775;28;20078;-66
2021/10/24 04:00:42;;;;;;;7.70;4.35;;;6.30;75.00;;;;;;5014670;28;20021;-66
2021/10/24 04:03:07;;;;;;;7.03;4.43;;;6.30;74.90;;;;;;5011642;28;20037;-66
2021/10/24 04:05:33;;;;;;;6.65;4.05;;;6.20;74.70;;;;;;5017242;28;20026;-66
2021/10/24 04:08:00;;;;;;;7.53;4.20;;;6.20;74.40;;;;;;5027783;28;20018;-66
2021/10/24 04:10:27;;;;;;;9.55;4.93;;;6.20;74.20;;;;;;5020810;28;20124;-66
2021/10/24 04:12:54;;;;;;;10.77;4.43;;;6.20;74.20;;;;;;5018398;28;20038;-66
2021/10/24 04:15:21;;;;;;;12.70;5.30;;;6.20;74.10;;;;;;5026915;28;20049;-66
2021/10/24 04:17:47;;;;;;;11.57;5.60;;;6.20;74.10;;;;;;5013445;28;20030;-66
2021/10/24 04:20:17;;;;;;;8.45;4.38;;;6.10;73.90;;;;;;5015606;28;20022;-66
2021/10/24 04:22:43;;;;;;;7.53;4.68;;;6.10;73.80;;;;;;5015190;28;20481;-66
2021/10/24 04:25:10;;;;;;;9.10;4.70;;;6.10;74.00;;;;;;5015075;28;20018;-67
2021/10/24 04:27:37;;;;;;;10.73;5.00;;;6.10;74.40;;;;;;5013602;28;20079;-66
2021/10/24 04:30:05;;;;;;;9.40;4.55;;;6.00;74.50;;;;;;5012247;28;20116;-66
2021/10/24 04:32:31;;;;;;;10.68;4.63;;;6.00;74.60;;;;;;5015303;28;20129;-66
2021/10/24 04:34:57;;;;;;;8.60;4.45;;;6.00;74.60;;;;;;5015336;28;20049;-66
2021/10/24 04:37:23;;;;;;;8.80;4.75;;;6.00;74.50;;;;;;5015176;28;20048;-66
2021/10/24 04:39:48;;;;;;;11.32;5.10;;;6.00;74.60;;;;;;5014786;28;20082;-66
2021/10/24 04:42:14;;;;;;;16.42;5.75;;;5.90;74.30;;;;;;5044176;28;20103;-66
2021/10/24 04:44:40;;;;;;;9.82;4.38;;;6.00;74.20;;;;;;5031252;28;20045;-66
2021/10/24 04:47:06;;;;;;;11.48;5.10;;;5.90;75.10;;;;;;5035605;28;20020;-66
2021/10/24 04:49:32;;;;;;;13.45;5.00;;;5.90;74.30;;;;;;5029695;28;20033;-66
2021/10/24 04:51:58;;;;;;;8.95;4.68;;;5.90;74.60;;;;;;5030138;28;20464;-66
2021/10/24 04:54:24;;;;;;;12.27;4.60;;;5.90;75.40;;;;;;5029371;28;20053;-66
2021/10/24 04:56:53;;;;;;;8.90;4.40;;;5.90;75.90;;;;;;5023106;28;20096;-66
2021/10/24 04:59:19;;;;;;;9.45;4.47;;;5.90;75.40;;;;;;5028663;28;20053;-66
2021/10/24 05:01:47;;;;;;;12.50;4.93;;;5.90;75.10;;;;;;5030515;28;20408;-66
2021/10/24 05:04:13;;;;;;;13.48;5.10;;;5.80;74.90;;;;;;5026629;28;20515;-66
2021/10/24 05:06:39;;;;;;;10.52;4.38;;;5.80;74.80;;;;;;5017690;28;20076;-66
2021/10/24 05:09:05;;;;;;;14.27;5.00;;;5.80;74.80;;;;;;5024761;28;20022;-66
2021/10/24 05:11:32;;;;;;;9.85;4.32;;;5.80;74.80;;;;;;5039038;28;20036;-66
2021/10/24 05:14:02;;;;;;;8.50;4.40;;;5.80;74.70;;;;;;5037569;28;20037;-66
2021/10/24 05:16:27;;;;;;;9.02;4.15;;;5.80;74.70;;;;;;5040543;28;20021;-66
2021/10/24 05:18:53;;;;;;;8.88;4.10;;;5.80;74.60;;;;;;5038831;28;20098;-66
2021/10/24 05:21:20;;;;;;;7.53;3.83;;;5.80;74.30;;;;;;5035578;28;20030;-66
2021/10/24 05:23:46;;;;;;;9.70;4.07;;;5.80;74.10;;;;;;5026786;28;20034;-66
2021/10/24 05:26:12;;;;;;;8.05;3.60;;;5.80;73.90;;;;;;5017455;28;20036;-65
2021/10/24 05:28:37;;;;;;;8.75;4.25;;;5.70;73.90;;;;;;5032383;28;20407;-65
2021/10/24 05:31:03;;;;;;;8.90;4.20;;;5.70;73.90;;;;;;5028981;28;20033;-66
2021/10/24 05:33:29;;;;;;;7.28;4.32;;;5.70;73.90;;;;;;5038884;28;20074;-66
2021/10/24 05:35:55;;;;;;;8.55;4.38;;;5.80;74.00;;;;;;5032150;28;20100;-66
2021/10/24 05:38:22;;;;;;;7.72;4.22;;;5.80;74.00;;;;;;5033741;28;20180;-67
2021/10/24 05:40:49;;;;;;;7.40;3.50;;;5.80;74.00;;;;;;5031685;28;20033;-66
2021/10/24 05:43:15;;;;;;;8.30;4.13;;;5.80;74.20;;;;;;5035206;28;20040;-67
2021/10/24 05:45:44;;;;;;;14.93;7.90;;;5.80;74.20;;;;;;5035576;28;20396;-67
2021/10/24 05:48:11;;;;;;;30.08;16.00;;;5.80;74.00;;;;;;5037191;28;20046;-66
2021/10/24 05:50:38;;;;;;;18.17;9.73;;;5.80;73.90;;;;;;5033757;28;20018;-66
2021/10/24 05:53:04;;;;;;;13.38;6.63;;;5.90;74.00;;;;;;5017369;28;20080;-65
2021/10/24 05:55:30;;;;;;;10.55;5.70;;;5.90;73.70;;;;;;5033059;28;20408;-65
2021/10/24 05:57:56;;;;;;;8.82;5.10;;;6.00;73.50;;;;;;5032487;28;20029;-66
2021/10/24 06:00:22;;;;;;;7.65;4.30;;;6.00;73.30;;;;;;5039018;28;20045;-66
2021/10/24 06:02:48;;;;;;;8.50;4.53;;;6.00;73.20;;;;;;5026423;28;20037;-66
2021/10/24 06:05:16;;;;;;;10.20;4.82;;;6.00;73.10;;;;;;5030987;28;20385;-66
2021/10/24 06:07:41;;;;;;;11.60;5.28;;;6.00;73.20;;;;;;5027094;28;20026;-65
2021/10/24 06:10:17;;;;;;;18.35;6.03;;;5.90;73.30;;;;;;5028307;28;20044;-66
2021/10/24 06:12:46;;;;;;;17.25;6.18;;;5.90;74.70;;;;;;5023213;28;20152;-66
2021/10/24 06:15:14;;;;;;;10.82;4.80;;;5.80;74.50;;;;;;5035942;28;20145;-66
2021/10/24 06:17:41;;;;;;;11.55;4.90;;;5.80;75.50;;;;;;5036798;28;20025;-66
2021/10/24 06:20:08;;;;;;;11.48;5.00;;;5.70;75.50;;;;;;5035887;28;20037;-66
2021/10/24 06:22:34;;;;;;;10.68;4.72;;;5.70;75.60;;;;;;5037193;28;20017;-66
2021/10/24 06:25:00;;;;;;;15.05;5.45;;;5.70;75.60;;;;;;5035970;28;20420;-66
2021/10/24 06:27:27;;;;;;;12.50;4.82;;;5.70;75.50;;;;;;5029590;28;20068;-66
2021/10/24 06:29:53;;;;;;;15.60;5.63;;;5.70;75.30;;;;;;5021472;28;20056;-67
2021/10/24 06:32:18;;;;;;;14.57;5.72;;;5.90;75.30;;;;;;5030975;28;20559;-66
2021/10/24 06:34:44;;;;;;;12.48;5.30;;;5.80;75.20;;;;;;5026687;28;20072;-66
2021/10/24 06:38:03;;;;;;;10.05;4.70;;;5.80;75.10;;;;;;5029535;28;20032;-66
2021/10/24 06:40:28;;;;;;;9.35;4.40;;;5.90;75.70;;;;;;5026875;28;20056;-66
2021/10/24 06:42:54;;;;;;;9.23;4.13;;;5.90;75.90;;;;;;5027414;28;20068;-66
2021/10/24 06:45:25;;;;;;;8.38;4.47;;;5.90;75.90;;;;;;5032820;28;20071;-66
2021/10/24 06:47:51;;;;;;;8.75;4.32;;;6.00;76.70;;;;;;5030661;28;20026;-66
2021/10/24 06:50:17;;;;;;;8.00;4.25;;;6.10;76.50;;;;;;5033211;28;20033;-66
2021/10/24 06:52:43;;;;;;;10.27;4.20;;;6.10;77.10;;;;;;5030717;28;20048;-67
2021/10/24 06:55:55;;;;;;;8.18;4.35;;;6.20;77.80;;;;;;5025938;28;20037;-66
2021/10/24 06:58:21;;;;;;;7.47;3.95;;;6.30;78.10;;;;;;5028895;28;20030;-67
2021/10/24 07:01:41;;;;;;;8.55;3.80;;;6.40;78.10;;;;;;5024546;28;20026;-67
2021/10/24 07:04:12;;;;;;;7.70;3.92;;;6.80;77.70;;;;;;5020114;28;20169;-67
2021/10/24 07:06:39;;;;;;;6.63;3.92;;;7.30;76.60;;;;;;5026981;28;20022;-67
2021/10/24 07:09:05;;;;;;;7.38;3.80;;;7.80;75.00;;;;;;5013271;28;20034;-67
2021/10/24 07:11:31;;;;;;;8.48;3.78;;;8.20;73.60;;;;;;5012406;28;20030;-67
2021/10/24 07:13:57;;;;;;;7.55;3.80;;;8.70;72.10;;;;;;5013821;28;20042;-68
2021/10/24 07:16:22;;;;;;;7.50;3.80;;;9.20;70.20;;;;;;5022042;28;20029;-67
2021/10/24 07:18:48;;;;;;;7.13;3.70;;;9.90;68.60;;;;;;5024984;28;20520;-67
2021/10/24 07:21:14;;;;;;;7.47;5.10;;;10.50;66.90;;;;;;5014530;28;20021;-67
2021/10/24 07:23:42;;;;;;;10.50;5.68;;;11.00;65.00;;;;;;5027403;28;20029;-67
2021/10/24 07:26:09;;;;;;;7.97;3.63;;;11.50;63.80;;;;;;5029862;28;20029;-67
2021/10/24 07:28:34;;;;;;;8.00;4.40;;;11.40;63.00;;;;;;5020463;28;20038;-67
2021/10/24 07:31:01;;;;;;;6.88;3.60;;;11.30;63.30;;;;;;5015579;28;20021;-67
2021/10/24 07:33:27;;;;;;;5.78;3.63;;;12.00;62.20;;;;;;5013946;28;20095;-70
2021/10/24 07:35:53;;;;;;;9.27;4.25;;;12.50;60.40;;;;;;5024824;28;20026;-70
2021/10/24 07:38:19;;;;;;;8.35;3.83;;;12.30;60.80;;;;;;5024307;28;20029;-70
2021/10/24 07:40:49;;;;;;;8.07;3.75;;;13.00;59.70;;;;;;5020581;28;20120;-71
2021/10/24 07:43:24;;;;;;;6.93;3.80;;;12.60;59.10;;;;;;5014664;28;20042;-71
2021/10/24 07:45:51;;;;;;;8.20;4.30;;;12.20;60.20;;;;;;5006566;28;20324;-70
2021/10/24 07:48:21;;;;;;;7.93;4.10;;;11.70;61.70;;;;;;5010580;28;20474;-70
2021/10/24 07:50:48;;;;;;;7.43;4.05;;;11.40;62.70;;;;;;5013836;28;20033;-70
2021/10/24 07:53:14;;;;;;;9.00;4.47;;;11.00;63.80;;;;;;5019775;28;20045;-70
2021/10/24 07:55:40;;;;;;;8.25;4.40;;;10.90;64.70;;;;;;5024399;28;20030;-70
2021/10/24 07:58:06;;;;;;;7.85;4.10;;;11.60;65.10;;;;;;5021445;28;20038;-70
2021/10/24 08:00:33;;;;;;;7.88;3.92;;;12.90;61.30;;;;;;5027251;28;20035;-70
2021/10/24 08:02:59;;;;;;;8.38;4.55;;;12.30;61.20;;;;;;5010024;28;20057;-70
2021/10/24 08:05:26;;;;;;;9.60;4.07;;;11.80;62.80;;;;;;5015295;28;20065;-70
2021/10/24 08:07:53;;;;;;;7.15;3.97;;;11.60;63.60;;;;;;5014264;28;20064;-69
2021/10/24 08:10:19;;;;;;;8.32;3.95;;;12.50;62.30;;;;;;5013653;28;20025;-70
2021/10/24 08:12:47;;;;;;;7.15;4.00;;;12.30;61.70;;;;;;5013740;28;20028;-70
2021/10/24 08:15:15;;;;;;;8.77;4.40;;;13.20;60.60;;;;;;5009869;28;20030;-70
2021/10/24 08:17:40;;;;;;;7.63;4.28;;;14.50;57.30;;;;;;5027037;28;20079;-70
2021/10/24 08:20:07;;;;;;;8.77;4.40;;;14.50;57.40;;;;;;5022916;28;20033;-70
2021/10/24 08:22:33;;;;;;;9.23;4.65;;;13.70;57.90;;;;;;5018648;28;20110;-70
2021/10/24 08:25:00;;;;;;;8.30;4.30;;;14.70;57.60;;;;;;5019698;28;20526;-70
2021/10/24 08:27:30;;;;;;;7.95;4.07;;;16.50;53.30;;;;;;5031345;28;20116;-70
2021/10/24 08:29:58;;;;;;;8.60;4.43;;;17.90;49.60;;;;;;5015149;28;20026;-70
2021/10/24 08:32:23;;;;;;;8.57;4.70;;;19.50;46.00;;;;;;5016932;28;20458;-70
2021/10/24 08:34:51;;;;;;;9.38;4.60;;;20.60;43.30;;;;;;5017416;28;20034;-69
2021/10/24 08:37:19;;;;;;;11.13;5.10;;;21.70;41.10;;;;;;5017020;28;20113;-70
2021/10/24 08:39:52;;;;;;;10.05;5.00;;;22.50;39.10;;;;;;5017290;28;20396;-70
2021/10/24 08:42:27;;;;;;;7.93;4.75;;;23.10;37.60;;;;;;5017455;28;20035;-71
2021/10/24 08:44:57;;;;;;;7.45;4.20;;;23.60;36.70;;;;;;5031475;28;21035;-72
2021/10/24 08:47:26;;;;;;;7.13;4.45;;;23.60;35.20;;;;;;5035191;28;20038;-71
2021/10/24 08:49:52;;;;;;;7.07;4.68;;;23.30;34.40;;;;;;5030249;28;20493;-69
2021/10/24 08:52:20;;;;;;;8.82;4.63;;;23.30;34.50;;;;;;5027382;28;20049;-71
2021/10/24 08:54:46;;;;;;;7.40;4.45;;;23.50;34.40;;;;;;5028356;28;20455;-70
2021/10/24 08:57:12;;;;;;;7.18;4.20;;;23.90;33.60;;;;;;5013924;28;20052;-70
2021/10/24 08:59:38;;;;;;;7.53;4.40;;;24.30;32.90;;;;;;5032924;28;20091;-71
2021/10/24 09:02:05;;;;;;;8.55;4.35;;;24.70;32.30;;;;;;5026599;28;20033;-71
2021/10/24 09:04:31;;;;;;;8.32;4.43;;;25.10;31.60;;;;;;5032902;28;20025;-70
2021/10/24 09:07:02;;;;;;;7.88;4.22;;;25.60;31.00;;;;;;5036715;28;20074;-70
2021/10/24 09:09:31;;;;;;;8.00;3.92;;;26.10;30.10;;;;;;5041079;28;20026;-71
2021/10/24 09:11:58;;;;;;;6.43;4.07;;;26.40;30.00;;;;;;5019582;28;20033;-71
2021/10/24 09:14:52;;;;;;;8.20;4.50;;;27.00;29.40;;;;;;5040370;28;20809;-71
2021/10/24 09:17:23;;;;;;;10.85;9.90;;;27.50;28.40;;;;;;5030858;28;20144;-71
2021/10/24 09:19:54;;;;;;;15.68;14.38;;;27.30;28.40;;;;;;5032182;28;20033;-71
2021/10/24 09:22:23;;;;;;;12.93;11.82;;;27.70;28.20;;;;;;5017887;28;20037;-71
2021/10/24 09:25:02;;;;;;;19.08;17.60;;;28.30;27.80;;;;;;5024471;28;20511;-71
2021/10/24 09:27:33;;;;;;;10.55;9.43;;;28.90;27.30;;;;;;5031058;28;20076;-71
2021/10/24 09:30:10;;;;;;;15.27;9.00;;;29.30;26.80;;;;;;5031183;28;20025;-71
2021/10/24 09:32:53;;;;;;;8.68;7.55;;;29.90;26.70;;;;;;5038043;28;20089;-71
2021/10/24 09:35:23;;;;;;;10.77;7.35;;;30.30;26.00;;;;;;5033014;28;20036;-72
2021/10/24 09:37:51;;;;;;;;;;;30.50;25.70;;;;;;5025132;28;20036;-71
2021/10/24 09:40:24;;;;;;;7.97;5.63;;;30.60;25.90;;;;;;5027947;28;19940;-72
2021/10/24 09:43:04;;;;;;;10.63;5.90;;;30.20;25.60;;;;;;5025774;28;20034;-72
2021/10/24 09:45:30;;;;;;;7.25;6.38;;;30.00;26.80;;;;;;5023901;28;20447;-71
2021/10/24 09:48:06;;;;;;;8.23;5.85;;;28.30;27.90;;;;;;5031143;28;20104;-71
2021/10/24 09:50:35;;;;;;;7.32;6.07;;;26.10;30.50;;;;;;5029721;28;20060;-71
2021/10/24 09:53:36;;;;;;;7.68;3.58;;;24.50;32.00;;;;;;5038809;28;20124;-71
2021/10/24 09:56:04;;;;;;;6.95;3.40;;;23.40;33.70;;;;;;5010645;28;20124;-71
2021/10/24 09:58:32;;;;;;;6.70;3.80;;;24.90;32.80;;;;;;5011971;28;20355;-71
2021/10/24 10:00:59;;;;;;;7.13;3.60;;;26.90;30.50;;;;;;5007941;28;20026;-72
2021/10/24 10:03:25;;;;;;;8.07;5.22;;;27.80;29.40;;;;;;5008504;28;20053;-73
2021/10/24 10:09:14;;;;;;;7.15;4.85;;;29.60;27.50;;;;;;4994362;28;20037;-73
2021/10/24 10:11:54;;;;;;;7.70;4.63;;;30.50;26.50;;;;;;4994541;28;20049;-72
2021/10/24 10:14:27;;;;;;;8.35;4.28;;;31.40;25.80;;;;;;5008205;28;20054;-74
2021/10/24 10:16:59;;;;;;;7.75;3.58;;;32.40;24.90;;;;;;5007872;28;20033;-73
2021/10/24 10:19:30;;;;;;;7.70;3.50;;;33.30;24.60;;;;;;5002790;28;20050;-73
2021/10/24 10:21:56;;;;;;;6.57;3.47;;;34.30;24.10;;;;;;5008098;28;20486;-73
2021/10/24 10:24:43;;;;;;;7.22;3.60;;;34.90;22.80;;;;;;5007447;28;20396;-73
2021/10/24 10:27:27;;;;;;;5.72;3.60;;;35.10;22.20;;;;;;5007352;28;20037;-72
2021/10/24 10:30:05;;;;;;;6.65;4.78;;;35.30;22.10;;;;;;5003101;28;20247;-72
2021/10/24 10:32:46;;;;;;;7.97;3.45;;;35.90;21.80;;;;;;5025408;28;20509;-70
2021/10/24 10:35:17;;;;;;;8.70;3.20;;;36.20;21.70;;;;;;5042749;28;20017;-72
2021/10/24 10:37:49;;;;;;;6.40;3.38;;;34.80;22.50;;;;;;5034045;28;20033;-72
2021/10/24 10:40:32;;;;;;;6.57;2.92;;;35.30;22.50;;;;;;5034229;28;20068;-71
2021/10/24 10:43:02;;;;;;;7.90;3.25;;;36.30;21.90;;;;;;5040479;28;20036;-70
2021/10/24 10:45:42;;;;;;;5.85;3.00;;;37.00;21.40;;;;;;5029551;28;20029;-71
2021/10/24 10:48:26;;;;;;;;;;;37.10;20.80;;;;;;5031542;28;20120;-71
2021/10/24 10:51:19;;;;;;;;;;;37.20;20.80;;;;;;5059166;28;20336;-70
2021/10/24 10:53:44;;;;;;;;;;;37.60;20.60;;;;;;5042958;28;19917;-69
2021/10/24 10:56:24;;;;;;;;;;;38.00;20.40;;;;;;5034376;28;20391;-72
2021/10/24 10:58:51;;;;;;;;;;;38.60;19.90;;;;;;5032936;28;19909;-70
2021/10/24 11:01:21;;;;;;;;;;;36.10;19.90;;;;;;5041167;28;19963;-71
2021/10/24 11:03:51;;;;;;;;;;;36.20;22.10;;;;;;5037257;28;19917;-69
2021/10/24 11:06:23;;;;;;;;;;;34.60;21.50;;;;;;5027890;28;20292;-70
2021/10/24 11:08:53;;;;;;;;;;;35.60;22.60;;;;;;5014521;28;20337;-71
2021/10/24 11:11:38;;;;;;;;;;;36.90;21.50;;;;;;5026553;28;19916;-71
2021/10/24 11:14:15;;;;;;;;;;;37.50;21.10;;;;;;5024657;28;19920;-70
2021/10/24 11:16:42;;;;;;;;;;;38.00;20.60;;;;;;5029480;28;19917;-70
2021/10/24 11:19:29;;;;;;;;;;;38.80;19.80;;;;;;5032247;28;19912;-72
2021/10/24 11:22:01;;;;;;;;;;;39.50;19.60;;;;;;5027470;28;19909;-70
2021/10/24 11:24:33;;;;;;;;;;;38.20;19.40;;;;;;5027503;28;19921;-70
2021/10/24 11:26:59;;;;;;;;;;;38.50;20.40;;;;;;5014468;28;20011;-69
2021/10/24 11:29:31;;;;;;;;;;;37.20;20.80;;;;;;5019420;28;19913;-70
2021/10/24 11:32:13;;;;;;;;;;;38.20;20.10;;;;;;5028189;28;19909;-70
2021/10/24 11:34:39;;;;;;;;;;;39.30;19.30;;;;;;5025383;28;19979;-70
2021/10/24 11:37:05;;;;;;;;;;;39.60;19.00;;;;;;5060252;28;20372;-70
2021/10/24 11:39:30;;;;;;;;;;;39.60;19.10;;;;;;5033600;28;19960;-70
2021/10/24 11:42:12;;;;;;;;;;;40.40;18.70;;;;;;5028873;28;19951;-71
2021/10/24 11:44:37;;;;;;;;;;;40.70;18.00;;;;;;5023688;28;19920;-71
2021/10/24 11:47:07;;;;;;;;;;;40.60;18.60;;;;;;5027115;28;20300;-71
2021/10/24 11:49:46;;;;;;;;;;;38.70;18.60;;;;;;5021047;28;19909;-70
2021/10/24 11:52:31;;;;;;;;;;;36.10;20.70;;;;;;5016525;28;19947;-70
2021/10/24 11:55:09;;;;;;;;;;;36.60;20.90;;;;;;5021375;28;20261;-69
2021/10/24 12:00:38;;;;;;;;;;;34.40;22.70;;;;;;5030764;28;19970;-70
2021/10/24 12:03:04;;;;;;;;;;;35.60;22.70;;;;;;5030160;28;19965;-69
2021/10/24 12:05:31;;;;;;;;;;;34.60;21.80;;;;;;5037338;28;20403;-70
2021/10/24 12:08:00;;;;;;;;;;;36.80;22.50;;;;;;5036168;28;19936;-68
2021/10/24 12:10:44;;;;;;;;;;;34.50;23.40;;;;;;5030463;28;19999;-68
2021/10/24 12:13:49;;;;;;;;;;;33.20;23.60;;;;;;5023597;28;19913;-68
2021/10/24 12:16:25;;;;;;;;;;;31.90;24.80;;;;;;5017093;28;19963;-68
2021/10/24 12:19:05;;;;;;;;;;;30.00;26.90;;;;;;5011156;28;19948;-67
2021/10/24 12:21:31;;;;;;;;;;;28.60;28.60;;;;;;5027238;28;19909;-67
2021/10/24 12:24:12;;;;;;;;;;;27.50;30.00;;;;;;5026782;28;19947;-68
2021/10/24 12:26:38;;;;;;;;;;;27.10;30.70;;;;;;5028423;28;19908;-68
2021/10/24 12:29:12;;;;;;;;;;;26.70;31.70;;;;;;5026714;28;20311;-68
2021/10/24 12:31:38;;;;;;;;;;;26.80;31.60;;;;;;5025185;28;20350;-68
2021/10/24 12:34:09;;;;;;;;;;;26.20;32.40;;;;;;5024760;28;19917;-68
2021/10/24 12:36:36;;;;;;;;;;;25.70;34.60;;;;;;5026601;28;19909;-68
2021/10/24 12:39:04;;;;;;;;;;;25.50;34.00;;;;;;5026294;28;20036;-68
2021/10/24 12:41:32;;;;;;;;;;;25.40;35.00;;;;;;5026918;28;19913;-68
2021/10/24 12:43:58;;;;;;;;;;;25.30;34.90;;;;;;5027380;28;20390;-68
2021/10/24 12:46:27;;;;;;;;;;;25.00;35.20;;;;;;5024794;28;19913;-68
2021/10/24 12:48:53;;;;;;;;;;;24.70;35.80;;;;;;5025772;28;19916;-67
2021/10/24 12:51:19;;;;;;;;;;;24.70;36.00;;;;;;5011313;28;19917;-68
2021/10/24 12:53:45;;;;;;;;;;;24.50;36.40;;;;;;5014793;28;19913;-68
2021/10/24 12:56:11;;;;;;;;;;;24.30;36.90;;;;;;5024555;28;19912;-68
2021/10/24 12:58:36;;;;;;;;;;;24.20;37.00;;;;;;5021469;28;19909;-68
2021/10/24 13:01:02;;;;;;;;;;;23.90;37.60;;;;;;5024695;28;19909;-68
2021/10/24 13:03:28;;;;;;;;;;;23.60;38.80;;;;;;5012438;28;19965;-68
2021/10/24 13:05:54;;;;;;;;;;;23.30;40.10;;;;;;5013534;28;20156;-68
2021/10/24 13:08:19;;;;;;;;;;;22.80;41.30;;;;;;5015821;28;20448;-67
2021/10/24 13:10:45;;;;;;;;;;;22.40;42.10;;;;;;5015441;28;20385;-68
2021/10/24 13:13:10;;;;;;;;;;;22.10;43.00;;;;;;5024109;28;19909;-68
2021/10/24 13:15:37;;;;;;;;;;;21.80;43.60;;;;;;5030153;28;19916;-68
2021/10/24 13:18:03;;;;;;;;;;;21.60;44.20;;;;;;5015710;28;19988;-69
2021/10/24 13:20:32;;;;;;;;;;;21.40;45.50;;;;;;5019318;28;19992;-69